Time;durP1;ratioP1;P1;durP2;ratioP2;P2;SDS_P1;SDS_P2;PMS_P1;PMS_P2;Temp;Humidity;BMP_temperature;BMP_pressure;BME280_temperature;BME280_humidity;BME280_pressure;Samples;Min_cycle;Max_cycle;Signal;HPM_P1;HPM_P2
2021/06/21 00:01:48;;;;;;;18.77;8.20;;;19.50;49.90;;;;;;6124367;23;19998;-76
2021/06/21 00:04:54;;;;;;;10.15;6.88;;;19.50;50.00;;;;;;6123369;23;20010;-76
2021/06/21 00:08:00;;;;;;;13.70;8.15;;;19.40;50.10;;;;;;6124302;23;20421;-75
2021/06/21 00:11:07;;;;;;;17.35;10.00;;;19.50;50.30;;;;;;6124597;23;20014;-76
2021/06/21 00:14:13;;;;;;;14.85;9.30;;;19.40;50.40;;;;;;6122971;23;20002;-74
2021/06/21 00:16:39;;;;;;;25.10;9.52;;;19.40;50.50;;;;;;6123656;23;20006;-75
2021/06/21 00:19:06;;;;;;;11.80;10.20;;;19.40;50.60;;;;;;6124558;23;20009;-76
2021/06/21 00:21:33;;;;;;;17.35;8.25;;;19.40;50.60;;;;;;6123721;23;20001;-75
2021/06/21 00:23:59;;;;;;;10.38;7.47;;;19.30;50.60;;;;;;6123974;23;20370;-76
2021/06/21 00:26:26;;;;;;;12.27;8.20;;;19.30;50.60;;;;;;6122997;23;19999;-75
2021/06/21 00:28:52;;;;;;;15.65;8.30;;;19.30;50.70;;;;;;6122550;23;20045;-75
2021/06/21 00:31:18;;;;;;;11.15;8.10;;;19.30;50.70;;;;;;6123237;23;20312;-76
2021/06/21 00:33:45;;;;;;;12.77;8.18;;;19.30;50.70;;;;;;6123905;23;20005;-77
2021/06/21 00:36:12;;;;;;;14.13;8.15;;;19.30;50.80;;;;;;6123754;23;20002;-76
2021/06/21 00:38:38;;;;;;;13.15;8.02;;;19.30;50.80;;;;;;6123523;23;20005;-75
2021/06/21 00:41:05;;;;;;;9.85;7.28;;;19.30;50.80;;;;;;6124190;23;19998;-76
2021/06/21 00:43:31;;;;;;;14.85;8.98;;;19.30;50.80;;;;;;6122676;23;20025;-76
2021/06/21 00:45:58;;;;;;;10.65;8.95;;;19.30;50.80;;;;;;6123715;23;20014;-76
2021/06/21 00:48:24;;;;;;;11.43;7.90;;;19.20;50.80;;;;;;6122842;23;20002;-76
2021/06/21 00:50:51;;;;;;;13.57;8.90;;;19.20;50.70;;;;;;6123842;23;20077;-75
2021/06/21 00:53:19;;;;;;;10.68;7.55;;;19.20;50.70;;;;;;6123253;23;20002;-76
2021/06/21 00:55:46;;;;;;;14.80;8.18;;;19.20;50.60;;;;;;6123195;23;19994;-76
2021/06/21 00:58:13;;;;;;;11.45;7.78;;;19.20;50.50;;;;;;6122400;23;20311;-76
2021/06/21 01:00:39;;;;;;;11.95;7.75;;;19.20;50.30;;;;;;6122639;23;19998;-75
2021/06/21 01:03:06;;;;;;;12.30;8.30;;;19.20;50.30;;;;;;6124101;23;20073;-76
2021/06/21 01:05:35;;;;;;;10.25;8.05;;;19.20;50.00;;;;;;6122873;23;20037;-75
2021/06/21 01:08:04;;;;;;;11.80;8.15;;;19.20;50.00;;;;;;6123538;23;20588;-75
2021/06/21 01:10:31;;;;;;;10.73;8.00;;;19.20;49.90;;;;;;6123118;23;20009;-76
2021/06/21 01:13:19;;;;;;;9.00;7.47;;;19.30;49.60;;;;;;6123646;23;20053;-77
2021/06/21 01:16:14;;;;;;;12.70;7.82;;;19.30;49.40;;;;;;6123677;23;20009;-75
2021/06/21 01:18:55;;;;;;;8.10;6.63;;;19.30;49.20;;;;;;6102194;23;20013;-75
2021/06/21 01:21:45;;;;;;;8.60;7.60;;;19.30;49.30;;;;;;6123456;23;19998;-75
2021/06/21 01:24:36;;;;;;;15.50;8.90;;;19.40;49.10;;;;;;6123460;23;20016;-75
2021/06/21 01:27:21;;;;;;;9.40;7.57;;;19.40;49.00;;;;;;6122150;23;20024;-75
2021/06/21 01:30:10;;;;;;;13.77;7.53;;;19.40;48.90;;;;;;6121370;23;20003;-74
2021/06/21 01:33:06;;;;;;;7.88;7.03;;;19.40;48.80;;;;;;6121932;23;20010;-75
2021/06/21 01:36:12;;;;;;;11.32;7.30;;;19.40;48.80;;;;;;6122652;23;20510;-75
2021/06/21 01:39:21;;;;;;;10.82;7.65;;;19.40;48.50;;;;;;6123331;23;20002;-74
2021/06/21 01:42:30;;;;;;;9.43;7.03;;;19.40;48.50;;;;;;6120330;23;20010;-76
2021/06/21 01:45:36;;;;;;;11.95;7.10;;;19.40;48.40;;;;;;6122218;23;20018;-76
2021/06/21 01:48:03;;;;;;;11.25;7.80;;;19.50;48.00;;;;;;6121929;23;20005;-75
2021/06/21 01:50:31;;;;;;;9.70;8.02;;;19.50;48.00;;;;;;6123900;23;20037;-75
2021/06/21 01:53:13;;;;;;;10.68;7.05;;;19.50;48.00;;;;;;6121639;23;20045;-75
2021/06/21 01:55:54;;;;;;;8.20;7.32;;;19.50;48.10;;;;;;6123373;23;20039;-74
2021/06/21 01:58:21;;;;;;;12.98;7.75;;;19.50;47.90;;;;;;6122492;23;20446;-75
2021/06/21 02:00:48;;;;;;;10.38;8.15;;;19.50;48.00;;;;;;6122360;23;20012;-75
2021/06/21 02:03:17;;;;;;;12.40;8.18;;;19.50;47.80;;;;;;6123301;23;20005;-75
2021/06/21 02:05:45;;;;;;;12.05;7.72;;;19.50;47.80;;;;;;6122160;23;20044;-74
2021/06/21 02:08:14;;;;;;;8.57;7.00;;;19.60;47.90;;;;;;6123068;23;20300;-75
2021/06/21 02:10:40;;;;;;;8.57;7.30;;;19.60;47.90;;;;;;6121831;23;20081;-75
2021/06/21 02:13:08;;;;;;;9.18;7.05;;;19.50;47.80;;;;;;6123036;23;19998;-75
2021/06/21 02:15:35;;;;;;;9.77;8.07;;;19.60;47.80;;;;;;6122514;23;20084;-76
2021/06/21 02:18:02;;;;;;;10.10;8.63;;;19.50;47.70;;;;;;6121725;23;20006;-76
2021/06/21 02:20:29;;;;;;;15.20;8.45;;;19.60;47.70;;;;;;6121197;23;20330;-75
2021/06/21 02:22:56;;;;;;;15.05;7.68;;;19.60;47.60;;;;;;6121195;23;20006;-75
2021/06/21 02:25:23;;;;;;;14.27;6.93;;;19.60;47.60;;;;;;6123349;23;20006;-74
2021/06/21 02:27:50;;;;;;;10.38;8.25;;;19.60;47.70;;;;;;6121961;23;20461;-74
2021/06/21 02:30:17;;;;;;;12.15;9.10;;;19.60;47.60;;;;;;6123169;23;20149;-75
2021/06/21 02:32:49;;;;;;;8.57;7.35;;;19.60;47.50;;;;;;6121656;23;20002;-76
2021/06/21 02:35:16;;;;;;;14.10;8.60;;;19.60;47.50;;;;;;6122228;23;20141;-76
2021/06/21 02:37:44;;;;;;;10.68;7.53;;;19.60;47.40;;;;;;6122677;23;20435;-75
2021/06/21 02:40:13;;;;;;;13.85;8.15;;;19.60;47.40;;;;;;6121493;23;20115;-75
2021/06/21 02:42:42;;;;;;;12.70;8.27;;;19.60;47.90;;;;;;6122799;23;20590;-76
2021/06/21 02:45:09;;;;;;;14.23;7.43;;;19.60;47.40;;;;;;6121836;23;20024;-76
2021/06/21 02:47:37;;;;;;;13.07;7.65;;;19.60;47.40;;;;;;6122983;23;20010;-76
2021/06/21 02:50:05;;;;;;;11.10;7.43;;;19.60;47.40;;;;;;6122239;23;20013;-76
2021/06/21 02:52:37;;;;;;;9.27;8.38;;;19.60;47.30;;;;;;6123041;23;19999;-76
2021/06/21 02:55:25;;;;;;;10.23;8.20;;;19.60;48.00;;;;;;6123044;23;20202;-75
2021/06/21 02:58:06;;;;;;;11.98;7.80;;;19.60;47.40;;;;;;6121473;23;20012;-75
2021/06/21 03:00:33;;;;;;;17.33;13.75;;;19.60;47.30;;;;;;6122822;23;20033;-76
2021/06/21 03:03:01;;;;;;;28.05;21.75;;;19.60;47.40;;;;;;6121842;23;20009;-77
2021/06/21 03:05:29;;;;;;;22.20;18.58;;;19.60;47.50;;;;;;6122472;23;20014;-76
2021/06/21 03:07:57;;;;;;;16.70;15.02;;;19.50;47.40;;;;;;6122709;23;20002;-76
2021/06/21 03:10:24;;;;;;;17.23;13.05;;;19.50;47.50;;;;;;6121431;23;20006;-75
2021/06/21 03:12:51;;;;;;;15.23;11.23;;;19.50;47.60;;;;;;6122731;23;20073;-75
2021/06/21 03:15:21;;;;;;;12.85;9.55;;;19.50;47.50;;;;;;6121276;23;20009;-76
2021/06/21 03:17:50;;;;;;;12.00;9.13;;;19.50;47.50;;;;;;6122843;23;20032;-76
2021/06/21 03:20:19;;;;;;;9.90;8.90;;;19.50;47.30;;;;;;6121412;23;20013;-76
2021/06/21 03:22:53;;;;;;;10.07;8.95;;;19.50;47.30;;;;;;6122372;23;20013;-75
2021/06/21 03:25:25;;;;;;;12.63;8.60;;;19.50;47.20;;;;;;6122357;23;20065;-75
2021/06/21 03:27:52;;;;;;;8.50;7.65;;;19.50;47.40;;;;;;6121204;23;20006;-75
2021/06/21 03:30:20;;;;;;;10.00;7.75;;;19.50;47.20;;;;;;6122939;23;20005;-75
2021/06/21 03:32:48;;;;;;;11.60;7.68;;;19.50;47.30;;;;;;6121295;23;20006;-75
2021/06/21 03:35:14;;;;;;;12.98;7.68;;;19.50;47.30;;;;;;6122746;23;19998;-75
2021/06/21 03:37:41;;;;;;;9.50;7.32;;;19.50;47.40;;;;;;6119076;23;20450;-72
2021/06/21 03:40:10;;;;;;;39.95;33.47;;;19.50;47.30;;;;;;6122238;23;20080;-75
2021/06/21 03:42:37;;;;;;;18.83;16.45;;;19.50;47.30;;;;;;6122418;23;20002;-76
2021/06/21 03:45:06;;;;;;;18.23;14.43;;;19.50;47.70;;;;;;6121276;23;20020;-76
2021/06/21 03:47:35;;;;;;;16.92;13.25;;;19.50;47.30;;;;;;6122349;23;20330;-75
2021/06/21 03:50:01;;;;;;;12.95;11.32;;;19.50;47.20;;;;;;6120150;23;20006;-71
2021/06/21 03:52:28;;;;;;;15.55;9.93;;;19.50;47.10;;;;;;6122344;23;19998;-74
2021/06/21 03:55:06;;;;;;;13.10;9.50;;;19.50;47.10;;;;;;6121494;23;20057;-81
2021/06/21 03:57:45;;;;;;;13.98;8.15;;;19.50;47.10;;;;;;6122148;23;20453;-79
2021/06/21 04:00:15;;;;;;;9.73;8.30;;;19.50;47.00;;;;;;6122993;23;20329;-75
2021/06/21 04:02:42;;;;;;;18.13;14.48;;;19.60;47.00;;;;;;6120456;23;20085;-74
2021/06/21 04:05:09;;;;;;;20.80;15.32;;;19.50;46.90;;;;;;6122173;23;20340;-71
2021/06/21 04:07:36;;;;;;;20.35;13.18;;;19.50;46.90;;;;;;6120987;23;20009;-72
2021/06/21 04:10:06;;;;;;;15.70;11.68;;;19.50;46.90;;;;;;6122270;23;20036;-74
2021/06/21 04:12:34;;;;;;;13.23;9.35;;;19.60;46.90;;;;;;6121749;23;19998;-79
2021/06/21 04:15:01;;;;;;;9.77;8.85;;;19.60;46.80;;;;;;6121638;23;20002;-73
2021/06/21 04:17:27;;;;;;;12.27;9.35;;;19.60;46.80;;;;;;6122631;23;20009;-72
2021/06/21 04:19:54;;;;;;;12.70;9.63;;;19.60;46.80;;;;;;6121430;23;20088;-75
2021/06/21 04:22:20;;;;;;;12.75;8.65;;;19.60;46.80;;;;;;6122120;23;20009;-76
2021/06/21 04:24:47;;;;;;;41.10;32.67;;;19.60;46.90;;;;;;6121030;23;20021;-77
2021/06/21 04:27:13;;;;;;;13.00;11.68;;;19.60;46.80;;;;;;6122132;23;20017;-76
2021/06/21 04:29:40;;;;;;;10.70;9.57;;;19.60;46.80;;;;;;6121456;23;20032;-77
2021/06/21 04:32:07;;;;;;;12.68;9.60;;;19.60;46.80;;;;;;6121937;23;19998;-71
2021/06/21 04:34:34;;;;;;;10.85;9.20;;;19.50;46.60;;;;;;6122271;23;20006;-76
2021/06/21 04:37:00;;;;;;;9.85;8.15;;;19.60;46.60;;;;;;6121035;23;19994;-75
2021/06/21 04:39:27;;;;;;;8.98;7.65;;;19.60;46.80;;;;;;6122149;23;20005;-77
2021/06/21 04:41:53;;;;;;;12.80;7.63;;;19.60;46.80;;;;;;6120912;23;20006;-76
2021/06/21 04:44:20;;;;;;;10.50;8.52;;;19.50;46.70;;;;;;6123436;23;20464;-75
2021/06/21 04:47:26;;;;;;;15.00;8.50;;;19.60;46.80;;;;;;6121088;23;20426;-75
2021/06/21 04:50:34;;;;;;;8.23;7.18;;;19.60;46.80;;;;;;6122042;23;20033;-76
2021/06/21 04:53:40;;;;;;;9.52;7.43;;;19.60;46.80;;;;;;6123066;23;20002;-73
2021/06/21 04:56:07;;;;;;;12.75;7.53;;;19.60;46.60;;;;;;6123500;23;20002;-77
2021/06/21 04:58:35;;;;;;;10.50;7.72;;;19.60;46.60;;;;;;6122778;23;20002;-76
2021/06/21 05:01:02;;;;;;;11.32;7.70;;;19.60;46.50;;;;;;6123731;23;19998;-75
2021/06/21 05:03:28;;;;;;;11.88;8.02;;;19.60;46.60;;;;;;6122770;23;20458;-78
2021/06/21 05:05:56;;;;;;;11.18;7.50;;;19.60;46.70;;;;;;6124289;23;20010;-76
2021/06/21 05:08:23;;;;;;;10.57;7.10;;;19.60;46.60;;;;;;6122293;23;20017;-77
2021/06/21 05:10:49;;;;;;;12.35;6.97;;;19.60;46.60;;;;;;6123790;23;19998;-75
2021/06/21 05:13:15;;;;;;;15.52;8.63;;;19.60;46.60;;;;;;6123336;23;20006;-76
2021/06/21 05:15:42;;;;;;;9.35;7.18;;;19.60;46.60;;;;;;6121582;23;19994;-76
2021/06/21 05:18:08;;;;;;;9.60;6.95;;;19.60;46.70;;;;;;6123766;23;20013;-76
2021/06/21 05:20:35;;;;;;;9.85;7.78;;;19.60;46.50;;;;;;6121967;23;20077;-77
2021/06/21 05:46:42;;;;;;;8.23;6.88;;;19.50;46.70;;;;;;6122136;23;20029;-76
2021/06/21 05:49:09;;;;;;;7.63;6.50;;;19.50;46.90;;;;;;6123303;23;20010;-77
2021/06/21 05:51:35;;;;;;;9.32;6.95;;;19.40;46.80;;;;;;6122198;23;20398;-77
2021/06/21 05:54:02;;;;;;;9.98;6.22;;;19.50;46.90;;;;;;6122995;23;20026;-74
2021/06/21 05:56:28;;;;;;;12.77;7.82;;;19.40;46.80;;;;;;6122609;23;20002;-75
2021/06/21 05:58:55;;;;;;;8.70;7.70;;;19.40;46.90;;;;;;6122711;23;20020;-77
2021/06/21 06:01:21;;;;;;;8.40;6.47;;;19.40;47.00;;;;;;6123356;23;19998;-75
2021/06/21 06:03:48;;;;;;;8.18;6.10;;;19.40;47.00;;;;;;6122045;23;20049;-73
2021/06/21 06:06:14;;;;;;;9.13;7.22;;;19.40;47.00;;;;;;6123189;23;20002;-74
2021/06/21 06:08:41;;;;;;;11.20;6.85;;;19.50;47.10;;;;;;6122025;23;20110;-76
2021/06/21 06:11:07;;;;;;;8.52;6.93;;;19.40;47.20;;;;;;6123096;23;20380;-71
2021/06/21 06:13:36;;;;;;;10.65;6.88;;;19.40;47.20;;;;;;6122402;23;20442;-77
2021/06/21 06:16:04;;;;;;;12.55;6.68;;;19.40;47.20;;;;;;6123080;23;20012;-76
2021/06/21 06:18:30;;;;;;;9.93;6.28;;;19.40;47.30;;;;;;6122186;23;20315;-76
2021/06/21 06:20:57;;;;;;;12.50;8.07;;;19.40;47.40;;;;;;6122158;23;20002;-75
2021/06/21 06:23:23;;;;;;;12.32;6.95;;;19.40;47.40;;;;;;6123061;23;20045;-75
2021/06/21 06:25:50;;;;;;;11.40;6.68;;;19.40;47.40;;;;;;6121763;23;20367;-76
2021/06/21 06:28:17;;;;;;;10.45;7.65;;;19.40;47.40;;;;;;6121855;23;20010;-75
2021/06/21 06:30:43;;;;;;;13.48;6.72;;;19.40;47.40;;;;;;6122116;23;20008;-74
2021/06/21 06:33:10;;;;;;;10.30;6.75;;;19.40;47.40;;;;;;6121080;23;20009;-76
2021/06/21 06:35:37;;;;;;;16.60;7.78;;;19.40;47.50;;;;;;6123017;23;20002;-75
2021/06/21 06:38:04;;;;;;;10.45;7.15;;;19.40;47.70;;;;;;6120250;23;20010;-76
2021/06/21 06:40:30;;;;;;;10.68;7.35;;;19.40;47.60;;;;;;6123018;23;20563;-76
2021/06/21 06:42:56;;;;;;;15.43;7.95;;;19.30;47.50;;;;;;6121485;23;19998;-75
2021/06/21 06:45:23;;;;;;;12.57;8.02;;;19.40;47.50;;;;;;6122795;23;20020;-76
2021/06/21 06:47:50;;;;;;;15.38;7.97;;;19.40;47.50;;;;;;6121506;23;20317;-77
2021/06/21 06:50:16;;;;;;;9.10;6.70;;;19.40;47.60;;;;;;6123250;23;20012;-75
2021/06/21 06:52:44;;;;;;;14.80;6.70;;;19.40;47.60;;;;;;6122168;23;20422;-76
2021/06/21 06:57:56;;;;;;;15.90;7.53;;;19.40;47.60;;;;;;6123368;23;20013;-76
2021/06/21 07:00:23;;;;;;;11.32;7.03;;;19.40;48.30;;;;;;6121404;23;20009;-76
2021/06/21 07:02:49;;;;;;;14.70;6.25;;;19.40;47.70;;;;;;6122809;23;20529;-75
2021/06/21 07:05:16;;;;;;;16.05;7.78;;;19.40;47.90;;;;;;6121553;23;20100;-76
2021/06/21 07:07:42;;;;;;;12.25;6.93;;;19.40;48.00;;;;;;6122994;23;20009;-75
2021/06/21 07:10:10;;;;;;;9.55;7.10;;;19.40;48.00;;;;;;6121837;23;20025;-77
2021/06/21 07:12:36;;;;;;;10.07;6.22;;;19.40;48.10;;;;;;6121917;23;20037;-75
2021/06/21 07:15:03;;;;;;;10.77;6.85;;;19.40;48.20;;;;;;6122708;23;19998;-76
2021/06/21 07:17:30;;;;;;;15.27;6.38;;;19.50;48.40;;;;;;6119013;23;20438;-76
2021/06/21 07:19:56;;;;;;;9.95;6.55;;;19.50;48.30;;;;;;6122668;23;20485;-75
2021/06/21 07:22:23;;;;;;;7.47;6.63;;;19.50;48.30;;;;;;6121016;23;20052;-77
2021/06/21 07:24:51;;;;;;;11.35;6.93;;;19.50;48.40;;;;;;6121962;23;20021;-75
2021/06/21 07:27:17;;;;;;;10.45;6.78;;;19.60;48.60;;;;;;6122067;23;20002;-77
2021/06/21 07:29:44;;;;;;;16.50;7.00;;;19.60;48.60;;;;;;6121937;23;20077;-76
2021/06/21 07:32:10;;;;;;;14.68;7.22;;;19.60;48.60;;;;;;6122445;23;19998;-77
2021/06/21 07:34:38;;;;;;;14.68;6.43;;;19.60;48.70;;;;;;6121439;23;20439;-76
2021/06/21 07:37:05;;;;;;;14.13;7.80;;;19.70;48.80;;;;;;6122423;23;20005;-74
2021/06/21 07:39:32;;;;;;;15.75;7.28;;;19.70;49.00;;;;;;6121670;23;20002;-75
2021/06/21 07:41:58;;;;;;;16.88;8.02;;;19.70;49.20;;;;;;6122564;23;20002;-76
2021/06/21 07:44:25;;;;;;;21.60;8.38;;;19.80;49.50;;;;;;6119575;23;20354;-76
2021/06/21 07:46:51;;;;;;;15.50;7.75;;;19.80;49.70;;;;;;6121988;23;20453;-74
2021/06/21 07:49:18;;;;;;;19.30;8.35;;;19.90;50.00;;;;;;6122067;23;20115;-76
2021/06/21 07:51:44;;;;;;;11.50;7.78;;;19.90;50.30;;;;;;6121619;23;19995;-76
2021/06/21 07:54:14;;;;;;;17.17;8.38;;;19.90;50.50;;;;;;6122794;23;20002;-75
2021/06/21 07:56:41;;;;;;;16.23;7.85;;;20.00;50.70;;;;;;6121203;23;20005;-75
2021/06/21 07:59:07;;;;;;;17.42;9.10;;;20.00;50.80;;;;;;6122441;23;20570;-76
2021/06/21 08:01:34;;;;;;;14.13;7.47;;;20.10;50.90;;;;;;6118816;23;20336;-75
2021/06/21 08:04:02;;;;;;;25.45;9.85;;;20.10;51.10;;;;;;6122048;23;20077;-74
2021/06/21 08:06:28;;;;;;;17.48;7.68;;;20.20;51.10;;;;;;6121914;23;20009;-75
2021/06/21 08:08:55;;;;;;;16.48;8.40;;;20.20;51.20;;;;;;6121477;23;20435;-76
2021/06/21 08:11:21;;;;;;;16.10;8.45;;;20.20;51.10;;;;;;6122079;23;20334;-76
2021/06/21 08:13:49;;;;;;;15.25;7.70;;;20.30;51.00;;;;;;6120802;23;20006;-75
2021/06/21 08:16:15;;;;;;;16.02;9.18;;;20.30;50.90;;;;;;6122817;23;20002;-76
2021/06/21 08:18:42;;;;;;;13.80;7.28;;;20.40;50.60;;;;;;6122602;23;20005;-75
2021/06/21 08:21:08;;;;;;;20.13;7.50;;;20.50;50.40;;;;;;6122721;23;20386;-74
2021/06/21 08:23:35;;;;;;;20.85;8.13;;;20.50;50.50;;;;;;6122904;23;20433;-75
2021/06/21 08:26:03;;;;;;;16.88;6.70;;;20.60;50.40;;;;;;6123460;23;20052;-75
2021/06/21 08:28:30;;;;;;;21.42;6.88;;;20.60;50.30;;;;;;6124233;23;20002;-76
2021/06/21 08:30:56;;;;;;;13.82;6.70;;;20.70;50.20;;;;;;6122880;23;20009;-74
2021/06/21 08:33:23;;;;;;;16.92;7.80;;;20.70;49.90;;;;;;6123096;23;20085;-71
2021/06/21 08:35:50;;;;;;;20.13;7.55;;;20.70;49.50;;;;;;6122427;23;20006;-75
2021/06/21 08:38:16;;;;;;;19.00;7.10;;;20.80;48.90;;;;;;6124111;23;20097;-75
2021/06/21 08:40:43;;;;;;;22.92;8.18;;;20.80;48.90;;;;;;6123102;23;20408;-76
2021/06/21 08:43:12;;;;;;;12.57;6.97;;;20.80;48.50;;;;;;6123978;23;20010;-74
2021/06/21 08:45:40;;;;;;;19.95;8.70;;;20.90;48.60;;;;;;6124028;23;20393;-75
2021/06/21 08:48:08;;;;;;;31.30;9.27;;;20.90;48.40;;;;;;6122852;23;20382;-76
2021/06/21 08:50:37;;;;;;;14.50;7.15;;;21.00;48.40;;;;;;6124016;23;20008;-75
2021/06/21 08:53:04;;;;;;;18.00;8.15;;;21.00;48.40;;;;;;6122276;23;20068;-76
2021/06/21 08:55:30;;;;;;;17.92;8.65;;;21.00;48.50;;;;;;6124577;23;20002;-76
2021/06/21 08:57:57;;;;;;;21.92;8.02;;;21.10;47.80;;;;;;6123164;23;20006;-75
2021/06/21 09:00:24;;;;;;;13.48;8.75;;;21.10;47.60;;;;;;6123946;23;20005;-76
2021/06/21 09:02:51;;;;;;;17.27;8.13;;;21.10;47.70;;;;;;6123676;23;20418;-75
2021/06/21 09:05:18;;;;;;;20.35;8.55;;;21.20;48.10;;;;;;6123012;23;20014;-77
2021/06/21 09:07:47;;;;;;;23.77;8.98;;;21.20;48.20;;;;;;6123528;23;20002;-74
2021/06/21 09:10:25;;;;;;;29.08;9.32;;;21.20;48.50;;;;;;6122256;23;20014;-76
2021/06/21 09:13:10;;;;;;;22.23;9.40;;;21.20;48.70;;;;;;6122644;23;20005;-76
2021/06/21 09:15:45;;;;;;;20.73;8.90;;;21.20;48.90;;;;;;6121436;23;20454;-78
2021/06/21 09:18:30;;;;;;;18.08;8.15;;;21.20;49.10;;;;;;6122641;23;20256;-75
2021/06/21 09:21:15;;;;;;;;;;;21.20;49.30;;;;;;6125074;23;20378;-77
2021/06/21 09:23:41;;;;;;;19.45;8.98;;;21.20;49.50;;;;;;6123192;23;19901;-77
2021/06/21 09:26:19;;;;;;;22.90;11.13;;;21.20;49.80;;;;;;6123884;23;20084;-74
2021/06/21 09:28:46;;;;;;;21.73;9.65;;;21.30;50.20;;;;;;6123097;23;20002;-77
2021/06/21 09:31:14;;;;;;;25.65;9.18;;;21.30;49.90;;;;;;6123122;23;19994;-75
2021/06/21 09:34:32;;;;;;;24.10;9.05;;;21.30;49.80;;;;;;6123523;23;20002;-76
2021/06/21 09:37:27;;;;;;;26.88;8.73;;;21.30;49.90;;;;;;6123057;23;20006;-76
2021/06/21 09:40:25;;;;;;;29.70;12.10;;;21.40;49.90;;;;;;6123436;23;20006;-75
2021/06/21 09:43:21;;;;;;;20.17;9.20;;;21.40;49.60;;;;;;6122297;23;20002;-75
2021/06/21 09:46:45;;;;;;;21.73;9.50;;;21.40;49.60;;;;;;6120667;23;20025;-76
2021/06/21 09:49:51;;;;;;;19.27;8.43;;;21.50;49.90;;;;;;6122235;23;19998;-77
2021/06/21 09:52:57;;;;;;;24.13;9.23;;;21.50;50.40;;;;;;6123601;23;20099;-77
2021/06/21 09:56:10;;;;;;;24.60;11.48;;;21.50;50.60;;;;;;6123877;23;20006;-76
2021/06/21 09:59:16;;;;;;;24.85;11.55;;;21.50;51.10;;;;;;6123133;23;20013;-76
2021/06/21 10:02:28;;;;;;;24.60;11.48;;;21.40;52.00;;;;;;6122789;23;19998;-77
2021/06/21 10:05:39;;;;;;;18.85;10.27;;;21.40;52.30;;;;;;6123775;23;20014;-76
2021/06/21 10:08:48;;;;;;;17.35;8.90;;;21.40;52.20;;;;;;6123232;23;20002;-77
2021/06/21 10:12:07;;;;;;;20.13;10.23;;;21.40;52.10;;;;;;6121763;23;20010;-76
2021/06/21 10:15:13;;;;;;;21.58;10.32;;;21.40;52.50;;;;;;6122674;23;20006;-78
2021/06/21 10:18:19;;;;;;;23.25;10.68;;;21.40;52.70;;;;;;6123358;23;20010;-77
2021/06/21 10:21:25;;;;;;;17.52;9.80;;;21.40;52.50;;;;;;6123364;23;20049;-76
2021/06/21 10:24:31;;;;;;;20.13;10.75;;;21.40;52.30;;;;;;6122145;23;20026;-77
2021/06/21 10:27:37;;;;;;;20.60;9.35;;;21.50;52.10;;;;;;6123318;23;20021;-76
2021/06/21 10:30:44;;;;;;;16.20;8.98;;;21.50;51.80;;;;;;6123546;23;20344;-77
2021/06/21 10:33:50;;;;;;;26.80;10.45;;;21.50;51.90;;;;;;6122470;23;20002;-77
2021/06/21 10:36:58;;;;;;;17.83;8.98;;;21.50;51.90;;;;;;6122842;23;20006;-76
2021/06/21 10:40:05;;;;;;;12.13;9.18;;;21.60;51.60;;;;;;6123249;23;20016;-77
2021/06/21 10:43:11;;;;;;;18.33;9.02;;;21.60;51.50;;;;;;6122805;23;20006;-77
2021/06/21 10:46:15;;;;;;;14.85;8.73;;;21.60;51.20;;;;;;6121757;23;20018;-77
2021/06/21 10:49:01;;;;;;;13.07;7.60;;;21.60;50.80;;;;;;6123098;23;20002;-78
2021/06/21 10:52:22;;;;;;;16.88;8.27;;;21.70;50.30;;;;;;6123549;23;20009;-77
2021/06/21 10:55:20;;;;;;;16.15;8.18;;;21.70;49.80;;;;;;6121755;23;20064;-76
2021/06/21 10:58:26;;;;;;;14.18;7.35;;;21.70;49.60;;;;;;6122137;23;20061;-77
2021/06/21 11:01:34;;;;;;;20.75;11.40;;;21.80;49.50;;;;;;6123308;23;20397;-77
2021/06/21 11:04:33;;;;;;;16.95;8.65;;;21.80;49.30;;;;;;6122394;23;20001;-78
2021/06/21 11:07:51;;;;;;;13.57;8.38;;;21.80;49.20;;;;;;6121480;23;20097;-76
2021/06/21 11:10:57;;;;;;;12.43;7.85;;;21.90;48.80;;;;;;6122376;23;20018;-76
2021/06/21 11:14:03;;;;;;;16.05;8.30;;;21.90;49.00;;;;;;6122709;23;20002;-76
2021/06/21 11:16:29;;;;;;;;;;;21.90;49.50;;;;;;6120809;23;20013;-79
2021/06/21 11:19:23;;;;;;;18.83;8.70;;;21.90;50.40;;;;;;6123176;23;20006;-80
2021/06/21 11:22:01;;;;;;;17.48;8.65;;;21.80;51.30;;;;;;6122699;23;20493;-74
2021/06/21 11:24:37;;;;;;;19.00;10.18;;;21.80;51.60;;;;;;6121602;23;20017;-81
2021/06/21 11:27:05;;;;;;;14.68;11.40;;;21.70;51.50;;;;;;6122881;23;20014;-84
2021/06/21 11:29:35;;;;;;;13.93;9.85;;;21.70;51.70;;;;;;6121727;23;20002;-76
2021/06/21 11:32:05;;;;;;;14.43;9.82;;;21.70;52.20;;;;;;6122139;23;20002;-75
2021/06/21 11:35:02;;;;;;;13.18;9.30;;;21.70;52.10;;;;;;6122208;23;20013;-75
2021/06/21 11:37:36;;;;;;;14.98;9.85;;;21.70;52.60;;;;;;6119501;23;20485;-76
2021/06/21 11:40:12;;;;;;;18.33;9.05;;;21.70;53.70;;;;;;6122258;23;20013;-73
2021/06/21 11:42:39;;;;;;;15.68;10.20;;;21.60;53.90;;;;;;6121521;23;20073;-78
2021/06/21 11:45:07;;;;;;;13.55;9.15;;;21.60;53.90;;;;;;6120978;23;20092;-79
2021/06/21 11:47:34;;;;;;;11.40;8.88;;;21.60;54.10;;;;;;6122139;23;20423;-77
2021/06/21 11:50:40;;;;;;;13.30;8.48;;;21.50;54.30;;;;;;6121302;23;19998;-80
2021/06/21 11:53:50;;;;;;;15.68;9.88;;;21.50;54.30;;;;;;6119927;23;20002;-77
2021/06/21 11:56:56;;;;;;;12.50;9.75;;;21.50;55.20;;;;;;6122440;23;20052;-78
2021/06/21 11:59:37;;;;;;;15.25;10.00;;;21.50;55.60;;;;;;6121425;23;20343;-78
2021/06/21 12:02:13;;;;;;;16.85;10.25;;;21.40;55.80;;;;;;6122274;23;20660;-74
2021/06/21 12:04:42;;;;;;;17.38;9.50;;;21.40;56.40;;;;;;6121780;23;20072;-77
2021/06/21 12:07:09;;;;;;;24.92;10.32;;;21.40;56.70;;;;;;6121570;23;20100;-76
2021/06/21 12:09:55;;;;;;;14.65;8.13;;;21.40;56.90;;;;;;6122383;23;20014;-78
2021/06/21 12:12:27;;;;;;;18.38;9.43;;;21.40;57.00;;;;;;6121047;23;20006;-74
2021/06/21 12:14:54;;;;;;;16.38;11.02;;;21.40;57.30;;;;;;6122466;23;20422;-80
2021/06/21 12:17:25;;;;;;;11.50;8.40;;;21.40;57.80;;;;;;6121674;23;20036;-79
2021/06/21 12:20:03;;;;;;;18.27;9.35;;;21.30;58.10;;;;;;6122534;23;20005;-78
2021/06/21 12:22:30;;;;;;;18.85;8.90;;;21.30;58.30;;;;;;6120967;23;20017;-78
2021/06/21 12:24:56;;;;;;;12.80;9.30;;;21.30;58.20;;;;;;6121143;23;20013;-79
2021/06/21 12:27:23;;;;;;;12.75;8.55;;;21.30;58.10;;;;;;6122705;23;20073;-79
2021/06/21 12:29:50;;;;;;;17.13;9.18;;;21.30;58.00;;;;;;6121205;23;20041;-78
2021/06/21 12:32:17;;;;;;;17.45;9.38;;;21.30;58.00;;;;;;6121932;23;20014;-79
2021/06/21 12:34:52;;;;;;;16.95;8.38;;;21.30;58.20;;;;;;6121243;23;20033;-75
2021/06/21 12:37:22;;;;;;;14.02;8.55;;;21.30;58.30;;;;;;6122645;23;20002;-78
2021/06/21 12:39:52;;;;;;;13.98;8.75;;;21.30;58.50;;;;;;6122510;23;20033;-79
2021/06/21 12:42:20;;;;;;;11.15;7.75;;;21.30;58.60;;;;;;6121076;23;20094;-80
2021/06/21 12:44:48;;;;;;;17.10;8.80;;;21.30;59.00;;;;;;6121745;23;20014;-79
2021/06/21 12:47:21;;;;;;;15.85;9.02;;;21.30;59.10;;;;;;6120958;23;20334;-79
2021/06/21 12:49:48;;;;;;;10.73;7.57;;;21.30;59.10;;;;;;6121994;23;20022;-79
2021/06/21 12:52:18;;;;;;;14.60;9.13;;;21.30;59.10;;;;;;6121772;23;20002;-81
2021/06/21 12:54:45;;;;;;;12.93;9.05;;;21.30;59.10;;;;;;6119166;23;20002;-79
2021/06/21 12:57:12;;;;;;;11.02;8.27;;;21.30;59.20;;;;;;6122129;23;20057;-79
2021/06/21 12:59:43;;;;;;;11.82;8.23;;;21.40;59.20;;;;;;6120674;23;20335;-72
2021/06/21 13:02:26;;;;;;;17.85;8.32;;;21.40;59.30;;;;;;6122387;23;20006;-79
2021/06/21 13:04:57;;;;;;;18.50;9.23;;;21.30;59.40;;;;;;6121576;23;20014;-79
2021/06/21 13:07:27;;;;;;;11.02;7.32;;;21.40;59.50;;;;;;6123436;23;20002;-79
2021/06/21 13:09:57;;;;;;;14.27;8.05;;;21.40;59.50;;;;;;6123361;23;20089;-80
2021/06/21 13:12:36;;;;;;;12.35;6.65;;;21.40;59.40;;;;;;6122266;23;20033;-79
2021/06/21 13:15:15;;;;;;;13.38;7.18;;;21.40;59.20;;;;;;6123710;23;20370;-79
2021/06/21 13:17:48;;;;;;;9.70;6.68;;;21.40;59.20;;;;;;6120718;23;20427;-80
2021/06/21 13:20:17;;;;;;;11.20;6.80;;;21.40;59.20;;;;;;6123467;23;20005;-79
2021/06/21 13:22:52;;;;;;;9.30;6.78;;;21.40;59.00;;;;;;6123628;23;20005;-76
2021/06/21 13:25:22;;;;;;;10.65;6.00;;;21.40;58.80;;;;;;6122841;23;20133;-74
2021/06/21 13:28:05;;;;;;;16.77;5.93;;;21.40;58.70;;;;;;6123678;23;20031;-78
2021/06/21 13:30:46;;;;;;;16.75;8.98;;;21.40;58.70;;;;;;6123389;23;20002;-72
2021/06/21 13:33:12;;;;;;;11.43;5.72;;;21.40;58.70;;;;;;6124294;23;20064;-74
2021/06/21 13:35:58;;;;;;;8.30;5.47;;;21.40;58.80;;;;;;6123719;23;20435;-74
2021/06/21 13:38:31;;;;;;;11.13;6.03;;;21.40;58.90;;;;;;6120898;23;20022;-77
2021/06/21 13:40:59;;;;;;;8.85;5.25;;;21.40;59.00;;;;;;6123441;23;20090;-74
2021/06/21 13:43:31;;;;;;;9.55;5.88;;;21.40;58.90;;;;;;6122826;23;20057;-77
2021/06/21 13:46:15;;;;;;;12.40;5.93;;;21.40;59.00;;;;;;6123155;23;20010;-72